sensor_id;sensor_type;location;lat;lon;timestamp;P1;durP1;ratioP1;P2;durP2;ratioP2
10283;SDS011;5187;52.378;9.018;2022-08-21T00:00:05;5.07;;;3.30;;
10283;SDS011;5187;52.378;9.018;2022-08-21T00:02:36;4.53;;;2.90;;
10283;SDS011;5187;52.378;9.018;2022-08-21T00:05:05;5.00;;;3.43;;
10283;SDS011;5187;52.378;9.018;2022-08-21T00:07:33;5.47;;;3.50;;
10283;SDS011;5187;52.378;9.018;2022-08-21T00:10:02;5.83;;;3.13;;
10283;SDS011;5187;52.378;9.018;2022-08-21T00:12:30;4.50;;;3.10;;
10283;SDS011;5187;52.378;9.018;2022-08-21T00:14:59;5.67;;;3.33;;
10283;SDS011;5187;52.378;9.018;2022-08-21T00:17:27;4.50;;;3.20;;
10283;SDS011;5187;52.378;9.018;2022-08-21T00:19:57;5.43;;;3.43;;
10283;SDS011;5187;52.378;9.018;2022-08-21T00:22:26;5.33;;;3.20;;
10283;SDS011;5187;52.378;9.018;2022-08-21T00:24:54;6.33;;;3.70;;
10283;SDS011;5187;52.378;9.018;2022-08-21T00:27:23;5.97;;;4.03;;
10283;SDS011;5187;52.378;9.018;2022-08-21T00:29:51;5.30;;;4.10;;
10283;SDS011;5187;52.378;9.018;2022-08-21T00:32:22;5.33;;;4.17;;
10283;SDS011;5187;52.378;9.018;2022-08-21T00:34:50;7.90;;;4.40;;
10283;SDS011;5187;52.378;9.018;2022-08-21T00:37:20;5.87;;;4.10;;
10283;SDS011;5187;52.378;9.018;2022-08-21T00:39:49;6.73;;;4.20;;
10283;SDS011;5187;52.378;9.018;2022-08-21T00:42:18;8.23;;;4.07;;
10283;SDS011;5187;52.378;9.018;2022-08-21T00:44:47;7.03;;;3.80;;
10283;SDS011;5187;52.378;9.018;2022-08-21T00:47:16;7.87;;;4.20;;
10283;SDS011;5187;52.378;9.018;2022-08-21T00:49:44;5.20;;;3.80;;
10283;SDS011;5187;52.378;9.018;2022-08-21T00:52:15;6.20;;;3.80;;
10283;SDS011;5187;52.378;9.018;2022-08-21T00:54:47;5.27;;;3.73;;
10283;SDS011;5187;52.378;9.018;2022-08-21T00:57:17;5.60;;;3.73;;
10283;SDS011;5187;52.378;9.018;2022-08-21T00:59:51;7.13;;;3.70;;
10283;SDS011;5187;52.378;9.018;2022-08-21T01:02:21;5.57;;;3.70;;
10283;SDS011;5187;52.378;9.018;2022-08-21T01:04:50;5.70;;;3.20;;
10283;SDS011;5187;52.378;9.018;2022-08-21T01:07:19;6.90;;;3.50;;
10283;SDS011;5187;52.378;9.018;2022-08-21T01:09:50;5.13;;;3.80;;
10283;SDS011;5187;52.378;9.018;2022-08-21T01:12:19;4.20;;;3.13;;
10283;SDS011;5187;52.378;9.018;2022-08-21T01:14:48;3.97;;;3.30;;
10283;SDS011;5187;52.378;9.018;2022-08-21T01:17:16;4.53;;;4.03;;
10283;SDS011;5187;52.378;9.018;2022-08-21T01:19:45;5.33;;;4.00;;
10283;SDS011;5187;52.378;9.018;2022-08-21T01:22:15;7.33;;;4.10;;
10283;SDS011;5187;52.378;9.018;2022-08-21T01:24:43;6.00;;;4.03;;
10283;SDS011;5187;52.378;9.018;2022-08-21T01:27:12;7.50;;;4.30;;
10283;SDS011;5187;52.378;9.018;2022-08-21T01:29:41;7.40;;;4.37;;
10283;SDS011;5187;52.378;9.018;2022-08-21T01:32:12;7.30;;;4.43;;
10283;SDS011;5187;52.378;9.018;2022-08-21T01:34:43;6.57;;;4.60;;
10283;SDS011;5187;52.378;9.018;2022-08-21T01:37:12;7.50;;;4.27;;
10283;SDS011;5187;52.378;9.018;2022-08-21T01:39:44;5.77;;;4.30;;
10283;SDS011;5187;52.378;9.018;2022-08-21T01:42:13;5.50;;;4.30;;
10283;SDS011;5187;52.378;9.018;2022-08-21T01:44:42;4.93;;;3.83;;
10283;SDS011;5187;52.378;9.018;2022-08-21T01:47:11;6.93;;;4.03;;
10283;SDS011;5187;52.378;9.018;2022-08-21T01:49:40;5.70;;;4.13;;
10283;SDS011;5187;52.378;9.018;2022-08-21T01:52:10;4.37;;;3.97;;
10283;SDS011;5187;52.378;9.018;2022-08-21T01:54:39;8.87;;;4.47;;
10283;SDS011;5187;52.378;9.018;2022-08-21T01:57:09;6.10;;;3.63;;
10283;SDS011;5187;52.378;9.018;2022-08-21T01:59:38;5.07;;;3.80;;
10283;SDS011;5187;52.378;9.018;2022-08-21T02:02:07;7.90;;;4.30;;
10283;SDS011;5187;52.378;9.018;2022-08-21T02:04:35;6.43;;;4.27;;
10283;SDS011;5187;52.378;9.018;2022-08-21T02:07:04;7.50;;;4.53;;
10283;SDS011;5187;52.378;9.018;2022-08-21T02:09:33;7.20;;;4.77;;
10283;SDS011;5187;52.378;9.018;2022-08-21T02:12:05;6.67;;;4.97;;
10283;SDS011;5187;52.378;9.018;2022-08-21T02:14:35;7.10;;;4.83;;
10283;SDS011;5187;52.378;9.018;2022-08-21T02:17:04;6.53;;;4.80;;
10283;SDS011;5187;52.378;9.018;2022-08-21T02:19:35;8.20;;;4.93;;
10283;SDS011;5187;52.378;9.018;2022-08-21T02:22:06;7.70;;;4.53;;
10283;SDS011;5187;52.378;9.018;2022-08-21T02:24:35;7.23;;;4.20;;
10283;SDS011;5187;52.378;9.018;2022-08-21T02:27:20;5.23;;;3.90;;
10283;SDS011;5187;52.378;9.018;2022-08-21T02:29:54;8.10;;;4.00;;
10283;SDS011;5187;52.378;9.018;2022-08-21T02:32:23;6.00;;;4.23;;
10283;SDS011;5187;52.378;9.018;2022-08-21T02:34:52;6.40;;;4.30;;
10283;SDS011;5187;52.378;9.018;2022-08-21T02:37:22;5.07;;;3.80;;
10283;SDS011;5187;52.378;9.018;2022-08-21T02:39:50;5.73;;;3.60;;
10283;SDS011;5187;52.378;9.018;2022-08-21T02:42:19;4.87;;;4.00;;
10283;SDS011;5187;52.378;9.018;2022-08-21T02:44:47;7.67;;;4.17;;
10283;SDS011;5187;52.378;9.018;2022-08-21T02:47:17;5.90;;;4.00;;
10283;SDS011;5187;52.378;9.018;2022-08-21T02:49:45;4.73;;;4.00;;
10283;SDS011;5187;52.378;9.018;2022-08-21T02:52:14;5.47;;;4.10;;
10283;SDS011;5187;52.378;9.018;2022-08-21T02:54:42;5.63;;;4.43;;
10283;SDS011;5187;52.378;9.018;2022-08-21T02:57:10;6.23;;;4.27;;
10283;SDS011;5187;52.378;9.018;2022-08-21T02:59:39;5.97;;;4.33;;
10283;SDS011;5187;52.378;9.018;2022-08-21T03:02:07;9.57;;;4.30;;
10283;SDS011;5187;52.378;9.018;2022-08-21T03:04:39;4.87;;;4.47;;
10283;SDS011;5187;52.378;9.018;2022-08-21T03:07:12;7.23;;;4.50;;
10283;SDS011;5187;52.378;9.018;2022-08-21T03:09:41;6.87;;;4.63;;
10283;SDS011;5187;52.378;9.018;2022-08-21T03:12:21;5.10;;;4.50;;
10283;SDS011;5187;52.378;9.018;2022-08-21T03:14:49;5.97;;;4.30;;
10283;SDS011;5187;52.378;9.018;2022-08-21T03:17:17;5.37;;;4.27;;
10283;SDS011;5187;52.378;9.018;2022-08-21T03:19:56;6.73;;;4.30;;
10283;SDS011;5187;52.378;9.018;2022-08-21T03:22:25;6.57;;;4.33;;
10283;SDS011;5187;52.378;9.018;2022-08-21T03:24:56;7.53;;;4.40;;
10283;SDS011;5187;52.378;9.018;2022-08-21T03:27:25;5.70;;;4.43;;
10283;SDS011;5187;52.378;9.018;2022-08-21T03:29:55;6.83;;;4.60;;
10283;SDS011;5187;52.378;9.018;2022-08-21T03:32:23;6.63;;;4.23;;
10283;SDS011;5187;52.378;9.018;2022-08-21T03:34:52;6.17;;;4.13;;
10283;SDS011;5187;52.378;9.018;2022-08-21T03:37:21;5.90;;;4.17;;
10283;SDS011;5187;52.378;9.018;2022-08-21T03:39:50;7.73;;;4.10;;
10283;SDS011;5187;52.378;9.018;2022-08-21T03:42:19;6.03;;;3.70;;
10283;SDS011;5187;52.378;9.018;2022-08-21T03:44:47;6.27;;;4.37;;
10283;SDS011;5187;52.378;9.018;2022-08-21T03:47:16;5.13;;;4.00;;
10283;SDS011;5187;52.378;9.018;2022-08-21T03:49:45;8.00;;;4.40;;
10283;SDS011;5187;52.378;9.018;2022-08-21T03:52:13;6.40;;;4.10;;
10283;SDS011;5187;52.378;9.018;2022-08-21T03:54:43;5.80;;;4.07;;
10283;SDS011;5187;52.378;9.018;2022-08-21T03:57:12;4.97;;;3.97;;
10283;SDS011;5187;52.378;9.018;2022-08-21T03:59:41;7.07;;;4.30;;
10283;SDS011;5187;52.378;9.018;2022-08-21T04:02:10;5.53;;;3.93;;
10283;SDS011;5187;52.378;9.018;2022-08-21T04:04:38;6.83;;;3.90;;
10283;SDS011;5187;52.378;9.018;2022-08-21T04:07:06;5.33;;;4.43;;
10283;SDS011;5187;52.378;9.018;2022-08-21T04:09:35;7.40;;;4.17;;
10283;SDS011;5187;52.378;9.018;2022-08-21T04:12:05;7.47;;;4.33;;
10283;SDS011;5187;52.378;9.018;2022-08-21T04:14:33;7.60;;;4.97;;
10283;SDS011;5187;52.378;9.018;2022-08-21T04:17:02;6.60;;;4.30;;
10283;SDS011;5187;52.378;9.018;2022-08-21T04:19:31;7.10;;;4.83;;
10283;SDS011;5187;52.378;9.018;2022-08-21T04:22:00;7.40;;;4.30;;
10283;SDS011;5187;52.378;9.018;2022-08-21T04:24:28;9.73;;;5.17;;
10283;SDS011;5187;52.378;9.018;2022-08-21T04:26:56;7.77;;;4.47;;
10283;SDS011;5187;52.378;9.018;2022-08-21T04:29:26;7.20;;;4.53;;
10283;SDS011;5187;52.378;9.018;2022-08-21T04:31:55;9.10;;;5.03;;
10283;SDS011;5187;52.378;9.018;2022-08-21T04:34:23;8.00;;;5.37;;
10283;SDS011;5187;52.378;9.018;2022-08-21T04:36:52;5.73;;;4.50;;
10283;SDS011;5187;52.378;9.018;2022-08-21T04:39:20;7.80;;;5.33;;
10283;SDS011;5187;52.378;9.018;2022-08-21T04:41:55;10.43;;;5.07;;
10283;SDS011;5187;52.378;9.018;2022-08-21T04:44:23;8.67;;;5.27;;
10283;SDS011;5187;52.378;9.018;2022-08-21T04:46:53;5.63;;;5.10;;
10283;SDS011;5187;52.378;9.018;2022-08-21T04:49:21;6.43;;;4.90;;
10283;SDS011;5187;52.378;9.018;2022-08-21T04:51:50;9.53;;;5.93;;
10283;SDS011;5187;52.378;9.018;2022-08-21T04:54:19;7.23;;;5.20;;
10283;SDS011;5187;52.378;9.018;2022-08-21T04:56:48;8.97;;;5.27;;
10283;SDS011;5187;52.378;9.018;2022-08-21T04:59:18;8.03;;;5.17;;
10283;SDS011;5187;52.378;9.018;2022-08-21T05:01:48;7.93;;;5.37;;
10283;SDS011;5187;52.378;9.018;2022-08-21T05:04:20;6.17;;;5.33;;
10283;SDS011;5187;52.378;9.018;2022-08-21T05:06:50;8.10;;;5.63;;
10283;SDS011;5187;52.378;9.018;2022-08-21T05:09:19;9.70;;;6.40;;
10283;SDS011;5187;52.378;9.018;2022-08-21T05:11:48;9.13;;;5.87;;
10283;SDS011;5187;52.378;9.018;2022-08-21T05:14:17;10.07;;;5.93;;
10283;SDS011;5187;52.378;9.018;2022-08-21T05:16:46;7.33;;;5.67;;
10283;SDS011;5187;52.378;9.018;2022-08-21T05:19:15;8.63;;;6.13;;
10283;SDS011;5187;52.378;9.018;2022-08-21T05:21:45;13.17;;;7.10;;
10283;SDS011;5187;52.378;9.018;2022-08-21T05:24:14;9.47;;;6.43;;
10283;SDS011;5187;52.378;9.018;2022-08-21T05:26:44;10.03;;;6.27;;
10283;SDS011;5187;52.378;9.018;2022-08-21T05:29:13;9.47;;;7.00;;
10283;SDS011;5187;52.378;9.018;2022-08-21T05:31:43;7.87;;;6.53;;
10283;SDS011;5187;52.378;9.018;2022-08-21T05:34:13;8.90;;;6.53;;
10283;SDS011;5187;52.378;9.018;2022-08-21T05:36:42;11.97;;;7.10;;
10283;SDS011;5187;52.378;9.018;2022-08-21T05:39:12;10.37;;;7.43;;
10283;SDS011;5187;52.378;9.018;2022-08-21T05:41:40;8.93;;;7.47;;
10283;SDS011;5187;52.378;9.018;2022-08-21T05:44:09;10.70;;;8.13;;
10283;SDS011;5187;52.378;9.018;2022-08-21T05:46:37;10.43;;;7.93;;
10283;SDS011;5187;52.378;9.018;2022-08-21T05:49:06;11.90;;;8.23;;
10283;SDS011;5187;52.378;9.018;2022-08-21T05:51:34;14.47;;;8.77;;
10283;SDS011;5187;52.378;9.018;2022-08-21T05:54:03;12.73;;;9.00;;
10283;SDS011;5187;52.378;9.018;2022-08-21T05:56:33;11.13;;;9.00;;
10283;SDS011;5187;52.378;9.018;2022-08-21T05:59:02;9.97;;;8.40;;
10283;SDS011;5187;52.378;9.018;2022-08-21T06:01:34;12.83;;;9.23;;
10283;SDS011;5187;52.378;9.018;2022-08-21T06:04:03;11.90;;;9.03;;
10283;SDS011;5187;52.378;9.018;2022-08-21T06:06:33;11.07;;;9.77;;
10283;SDS011;5187;52.378;9.018;2022-08-21T06:09:02;11.53;;;9.40;;
10283;SDS011;5187;52.378;9.018;2022-08-21T06:11:31;14.57;;;10.30;;
10283;SDS011;5187;52.378;9.018;2022-08-21T06:14:01;11.93;;;9.73;;
10283;SDS011;5187;52.378;9.018;2022-08-21T06:16:32;11.63;;;9.63;;
10283;SDS011;5187;52.378;9.018;2022-08-21T06:19:01;11.77;;;9.77;;
10283;SDS011;5187;52.378;9.018;2022-08-21T06:21:29;11.30;;;9.63;;
10283;SDS011;5187;52.378;9.018;2022-08-21T06:24:00;12.10;;;10.00;;
10283;SDS011;5187;52.378;9.018;2022-08-21T06:26:29;13.37;;;9.67;;
10283;SDS011;5187;52.378;9.018;2022-08-21T06:28:57;13.17;;;8.50;;
10283;SDS011;5187;52.378;9.018;2022-08-21T06:31:27;11.23;;;8.67;;
10283;SDS011;5187;52.378;9.018;2022-08-21T06:33:56;13.47;;;8.90;;
10283;SDS011;5187;52.378;9.018;2022-08-21T06:36:25;11.38;;;8.20;;
10283;SDS011;5187;52.378;9.018;2022-08-21T06:38:54;10.85;;;8.07;;
10283;SDS011;5187;52.378;9.018;2022-08-21T06:41:23;11.05;;;8.20;;
10283;SDS011;5187;52.378;9.018;2022-08-21T06:43:52;10.18;;;7.35;;
10283;SDS011;5187;52.378;9.018;2022-08-21T06:46:21;11.98;;;7.15;;
10283;SDS011;5187;52.378;9.018;2022-08-21T06:48:51;12.32;;;6.70;;
10283;SDS011;5187;52.378;9.018;2022-08-21T06:51:20;10.07;;;6.43;;
10283;SDS011;5187;52.378;9.018;2022-08-21T06:53:48;8.45;;;6.57;;
10283;SDS011;5187;52.378;9.018;2022-08-21T06:56:17;6.53;;;5.38;;
10283;SDS011;5187;52.378;9.018;2022-08-21T06:58:45;9.82;;;5.55;;
10283;SDS011;5187;52.378;9.018;2022-08-21T07:01:14;7.50;;;5.72;;
10283;SDS011;5187;52.378;9.018;2022-08-21T07:03:43;7.32;;;4.97;;
10283;SDS011;5187;52.378;9.018;2022-08-21T07:06:12;5.70;;;3.90;;
10283;SDS011;5187;52.378;9.018;2022-08-21T07:08:41;7.35;;;3.60;;
10283;SDS011;5187;52.378;9.018;2022-08-21T07:11:11;5.03;;;3.05;;
10283;SDS011;5187;52.378;9.018;2022-08-21T07:13:40;7.70;;;3.40;;
10283;SDS011;5187;52.378;9.018;2022-08-21T07:16:08;8.43;;;3.25;;
10283;SDS011;5187;52.378;9.018;2022-08-21T07:18:37;7.45;;;3.00;;
10283;SDS011;5187;52.378;9.018;2022-08-21T07:21:06;4.15;;;2.70;;
10283;SDS011;5187;52.378;9.018;2022-08-21T07:23:36;5.53;;;2.70;;
10283;SDS011;5187;52.378;9.018;2022-08-21T07:26:05;5.55;;;2.60;;
10283;SDS011;5187;52.378;9.018;2022-08-21T07:28:34;4.60;;;2.33;;
10283;SDS011;5187;52.378;9.018;2022-08-21T07:31:02;4.07;;;2.42;;
10283;SDS011;5187;52.378;9.018;2022-08-21T07:33:32;4.47;;;2.53;;
10283;SDS011;5187;52.378;9.018;2022-08-21T07:36:02;5.57;;;2.30;;
10283;SDS011;5187;52.378;9.018;2022-08-21T07:38:30;6.00;;;2.40;;
10283;SDS011;5187;52.378;9.018;2022-08-21T07:41:00;4.60;;;2.22;;
10283;SDS011;5187;52.378;9.018;2022-08-21T07:43:29;3.70;;;2.08;;
10283;SDS011;5187;52.378;9.018;2022-08-21T07:45:59;5.35;;;2.35;;
10283;SDS011;5187;52.378;9.018;2022-08-21T07:48:27;3.97;;;2.13;;
10283;SDS011;5187;52.378;9.018;2022-08-21T07:51:05;6.82;;;2.35;;
10283;SDS011;5187;52.378;9.018;2022-08-21T07:53:34;5.22;;;2.17;;
10283;SDS011;5187;52.378;9.018;2022-08-21T07:56:05;6.95;;;2.53;;
10283;SDS011;5187;52.378;9.018;2022-08-21T07:58:34;4.88;;;2.30;;
10283;SDS011;5187;52.378;9.018;2022-08-21T08:01:03;6.10;;;2.50;;
10283;SDS011;5187;52.378;9.018;2022-08-21T08:03:33;4.95;;;2.55;;
10283;SDS011;5187;52.378;9.018;2022-08-21T08:06:01;5.60;;;2.40;;
10283;SDS011;5187;52.378;9.018;2022-08-21T08:08:31;6.90;;;2.60;;
10283;SDS011;5187;52.378;9.018;2022-08-21T08:10:59;6.88;;;2.65;;
10283;SDS011;5187;52.378;9.018;2022-08-21T08:13:29;6.00;;;2.72;;
10283;SDS011;5187;52.378;9.018;2022-08-21T08:15:58;5.63;;;2.75;;
10283;SDS011;5187;52.378;9.018;2022-08-21T08:18:27;7.05;;;2.90;;
10283;SDS011;5187;52.378;9.018;2022-08-21T08:20:55;6.63;;;3.08;;
10283;SDS011;5187;52.378;9.018;2022-08-21T08:23:24;6.63;;;2.85;;
10283;SDS011;5187;52.378;9.018;2022-08-21T08:25:53;6.47;;;3.03;;
10283;SDS011;5187;52.378;9.018;2022-08-21T08:28:21;5.47;;;2.60;;
10283;SDS011;5187;52.378;9.018;2022-08-21T08:30:51;8.65;;;2.35;;
10283;SDS011;5187;52.378;9.018;2022-08-21T08:33:20;8.98;;;2.75;;
10283;SDS011;5187;52.378;9.018;2022-08-21T08:35:49;5.03;;;2.47;;
10283;SDS011;5187;52.378;9.018;2022-08-21T08:38:19;7.53;;;2.83;;
10283;SDS011;5187;52.378;9.018;2022-08-21T08:40:51;5.13;;;2.28;;
10283;SDS011;5187;52.378;9.018;2022-08-21T08:43:21;5.82;;;2.78;;
10283;SDS011;5187;52.378;9.018;2022-08-21T08:45:50;7.22;;;2.90;;
10283;SDS011;5187;52.378;9.018;2022-08-21T08:48:31;7.80;;;2.42;;
10283;SDS011;5187;52.378;9.018;2022-08-21T08:51:00;5.63;;;2.47;;
10283;SDS011;5187;52.378;9.018;2022-08-21T08:53:31;4.97;;;2.45;;
10283;SDS011;5187;52.378;9.018;2022-08-21T08:56:01;4.53;;;2.28;;
10283;SDS011;5187;52.378;9.018;2022-08-21T08:58:31;4.55;;;2.08;;
10283;SDS011;5187;52.378;9.018;2022-08-21T09:01:00;9.30;;;2.50;;
10283;SDS011;5187;52.378;9.018;2022-08-21T09:03:30;4.20;;;2.25;;
10283;SDS011;5187;52.378;9.018;2022-08-21T09:06:00;7.63;;;2.60;;
10283;SDS011;5187;52.378;9.018;2022-08-21T09:08:37;6.38;;;2.20;;
10283;SDS011;5187;52.378;9.018;2022-08-21T09:11:09;4.30;;;2.20;;
10283;SDS011;5187;52.378;9.018;2022-08-21T09:13:43;4.25;;;2.15;;
10283;SDS011;5187;52.378;9.018;2022-08-21T09:16:16;3.50;;;2.00;;
10283;SDS011;5187;52.378;9.018;2022-08-21T09:18:52;7.22;;;2.03;;
10283;SDS011;5187;52.378;9.018;2022-08-21T09:21:24;5.88;;;2.40;;
10283;SDS011;5187;52.378;9.018;2022-08-21T09:23:57;3.67;;;2.10;;
10283;SDS011;5187;52.378;9.018;2022-08-21T09:26:32;6.88;;;2.33;;
10283;SDS011;5187;52.378;9.018;2022-08-21T09:29:03;4.43;;;1.90;;
10283;SDS011;5187;52.378;9.018;2022-08-21T09:31:33;4.20;;;1.80;;
10283;SDS011;5187;52.378;9.018;2022-08-21T09:34:05;7.13;;;2.20;;
10283;SDS011;5187;52.378;9.018;2022-08-21T09:36:37;5.82;;;1.98;;
10283;SDS011;5187;52.378;9.018;2022-08-21T09:39:07;6.50;;;2.25;;
10283;SDS011;5187;52.378;9.018;2022-08-21T09:41:36;6.85;;;2.42;;
10283;SDS011;5187;52.378;9.018;2022-08-21T09:44:05;4.20;;;2.15;;
10283;SDS011;5187;52.378;9.018;2022-08-21T09:46:34;4.65;;;2.47;;
10283;SDS011;5187;52.378;9.018;2022-08-21T09:49:03;3.78;;;1.85;;
10283;SDS011;5187;52.378;9.018;2022-08-21T09:51:48;7.00;;;2.25;;
10283;SDS011;5187;52.378;9.018;2022-08-21T09:54:18;5.95;;;2.17;;
10283;SDS011;5187;52.378;9.018;2022-08-21T09:56:53;3.75;;;1.85;;
10283;SDS011;5187;52.378;9.018;2022-08-21T09:59:40;5.15;;;2.08;;
10283;SDS011;5187;52.378;9.018;2022-08-21T10:02:26;5.57;;;2.30;;
10283;SDS011;5187;52.378;9.018;2022-08-21T10:04:58;4.55;;;2.13;;
10283;SDS011;5187;52.378;9.018;2022-08-21T10:07:29;4.43;;;2.10;;
10283;SDS011;5187;52.378;9.018;2022-08-21T10:10:02;5.32;;;2.10;;
10283;SDS011;5187;52.378;9.018;2022-08-21T10:12:33;7.00;;;2.08;;
10283;SDS011;5187;52.378;9.018;2022-08-21T10:15:06;4.60;;;2.22;;
10283;SDS011;5187;52.378;9.018;2022-08-21T10:17:41;3.53;;;2.03;;
10283;SDS011;5187;52.378;9.018;2022-08-21T10:20:12;6.70;;;2.17;;
10283;SDS011;5187;52.378;9.018;2022-08-21T10:22:45;7.07;;;2.13;;
10283;SDS011;5187;52.378;9.018;2022-08-21T10:25:18;5.35;;;2.10;;
10283;SDS011;5187;52.378;9.018;2022-08-21T10:27:51;5.20;;;2.30;;
10283;SDS011;5187;52.378;9.018;2022-08-21T10:30:26;5.25;;;2.33;;
10283;SDS011;5187;52.378;9.018;2022-08-21T10:32:59;4.32;;;2.40;;
10283;SDS011;5187;52.378;9.018;2022-08-21T10:35:31;5.88;;;2.10;;
10283;SDS011;5187;52.378;9.018;2022-08-21T10:38:06;5.30;;;2.30;;
10283;SDS011;5187;52.378;9.018;2022-08-21T10:41:01;3.30;;;1.98;;
10283;SDS011;5187;52.378;9.018;2022-08-21T10:43:34;6.07;;;1.92;;
10283;SDS011;5187;52.378;9.018;2022-08-21T10:46:07;3.53;;;1.83;;
10283;SDS011;5187;52.378;9.018;2022-08-21T10:48:41;4.38;;;1.70;;
10283;SDS011;5187;52.378;9.018;2022-08-21T10:51:15;6.10;;;2.10;;
10283;SDS011;5187;52.378;9.018;2022-08-21T10:53:57;4.13;;;1.90;;
10283;SDS011;5187;52.378;9.018;2022-08-21T10:56:28;2.63;;;1.77;;
10283;SDS011;5187;52.378;9.018;2022-08-21T10:59:10;4.13;;;2.00;;
10283;SDS011;5187;52.378;9.018;2022-08-21T11:01:45;5.53;;;1.95;;
10283;SDS011;5187;52.378;9.018;2022-08-21T11:04:16;5.47;;;2.05;;
10283;SDS011;5187;52.378;9.018;2022-08-21T11:06:46;4.38;;;1.70;;
10283;SDS011;5187;52.378;9.018;2022-08-21T11:09:18;4.15;;;1.77;;
10283;SDS011;5187;52.378;9.018;2022-08-21T11:11:47;4.45;;;2.08;;
10283;SDS011;5187;52.378;9.018;2022-08-21T11:14:39;4.68;;;1.92;;
10283;SDS011;5187;52.378;9.018;2022-08-21T11:17:16;4.20;;;2.00;;
10283;SDS011;5187;52.378;9.018;2022-08-21T11:19:48;3.08;;;1.90;;
10283;SDS011;5187;52.378;9.018;2022-08-21T11:22:18;5.63;;;1.95;;
10283;SDS011;5187;52.378;9.018;2022-08-21T11:24:54;6.38;;;1.90;;
10283;SDS011;5187;52.378;9.018;2022-08-21T11:27:26;5.05;;;1.88;;
10283;SDS011;5187;52.378;9.018;2022-08-21T11:29:57;4.38;;;1.80;;
10283;SDS011;5187;52.378;9.018;2022-08-21T11:32:32;2.90;;;1.75;;
10283;SDS011;5187;52.378;9.018;2022-08-21T11:35:06;4.85;;;2.22;;
10283;SDS011;5187;52.378;9.018;2022-08-21T11:37:42;5.63;;;2.20;;
10283;SDS011;5187;52.378;9.018;2022-08-21T11:40:19;3.97;;;1.80;;
10283;SDS011;5187;52.378;9.018;2022-08-21T11:42:50;4.85;;;2.13;;
10283;SDS011;5187;52.378;9.018;2022-08-21T11:45:31;5.25;;;2.50;;
10283;SDS011;5187;52.378;9.018;2022-08-21T11:48:08;4.63;;;2.00;;
10283;SDS011;5187;52.378;9.018;2022-08-21T11:50:39;5.55;;;2.10;;
10283;SDS011;5187;52.378;9.018;2022-08-21T11:53:10;4.95;;;2.15;;
10283;SDS011;5187;52.378;9.018;2022-08-21T11:55:44;4.80;;;2.08;;
10283;SDS011;5187;52.378;9.018;2022-08-21T11:58:16;3.25;;;1.70;;
10283;SDS011;5187;52.378;9.018;2022-08-21T12:00:48;3.58;;;2.30;;
10283;SDS011;5187;52.378;9.018;2022-08-21T12:03:22;4.88;;;2.30;;
10283;SDS011;5187;52.378;9.018;2022-08-21T12:05:52;4.30;;;2.03;;
10283;SDS011;5187;52.378;9.018;2022-08-21T12:08:28;4.35;;;2.20;;
10283;SDS011;5187;52.378;9.018;2022-08-21T12:11:04;3.33;;;2.05;;
10283;SDS011;5187;52.378;9.018;2022-08-21T12:13:33;4.82;;;2.13;;
10283;SDS011;5187;52.378;9.018;2022-08-21T12:16:08;3.22;;;1.83;;
10283;SDS011;5187;52.378;9.018;2022-08-21T12:18:37;4.18;;;2.15;;
10283;SDS011;5187;52.378;9.018;2022-08-21T12:21:22;3.22;;;2.28;;
10283;SDS011;5187;52.378;9.018;2022-08-21T12:23:59;5.95;;;2.22;;
10283;SDS011;5187;52.378;9.018;2022-08-21T12:26:30;5.15;;;2.20;;
10283;SDS011;5187;52.378;9.018;2022-08-21T12:29:05;4.53;;;2.08;;
10283;SDS011;5187;52.378;9.018;2022-08-21T12:31:35;3.95;;;2.25;;
10283;SDS011;5187;52.378;9.018;2022-08-21T12:34:04;3.67;;;2.15;;
10283;SDS011;5187;52.378;9.018;2022-08-21T12:36:40;4.57;;;2.50;;
10283;SDS011;5187;52.378;9.018;2022-08-21T12:39:13;4.50;;;2.35;;
10283;SDS011;5187;52.378;9.018;2022-08-21T12:41:48;2.85;;;2.40;;
10283;SDS011;5187;52.378;9.018;2022-08-21T12:44:20;3.38;;;2.05;;
10283;SDS011;5187;52.378;9.018;2022-08-21T12:46:51;4.85;;;2.53;;
10283;SDS011;5187;52.378;9.018;2022-08-21T12:49:25;6.25;;;2.45;;
10283;SDS011;5187;52.378;9.018;2022-08-21T12:51:57;4.85;;;2.53;;
10283;SDS011;5187;52.378;9.018;2022-08-21T12:54:29;5.63;;;2.38;;
10283;SDS011;5187;52.378;9.018;2022-08-21T12:57:00;6.03;;;2.60;;
10283;SDS011;5187;52.378;9.018;2022-08-21T12:59:28;4.40;;;2.53;;
10283;SDS011;5187;52.378;9.018;2022-08-21T13:01:58;4.82;;;2.50;;
10283;SDS011;5187;52.378;9.018;2022-08-21T13:04:32;4.10;;;2.20;;
10283;SDS011;5187;52.378;9.018;2022-08-21T13:07:04;5.00;;;2.40;;
10283;SDS011;5187;52.378;9.018;2022-08-21T13:09:33;4.43;;;2.30;;
10283;SDS011;5187;52.378;9.018;2022-08-21T13:12:06;5.40;;;2.42;;
10283;SDS011;5187;52.378;9.018;2022-08-21T13:14:36;3.97;;;2.60;;
10283;SDS011;5187;52.378;9.018;2022-08-21T13:17:13;4.72;;;2.80;;
10283;SDS011;5187;52.378;9.018;2022-08-21T13:19:55;3.50;;;2.63;;
10283;SDS011;5187;52.378;9.018;2022-08-21T13:22:24;5.47;;;2.47;;
10283;SDS011;5187;52.378;9.018;2022-08-21T13:24:59;2.78;;;2.30;;
10283;SDS011;5187;52.378;9.018;2022-08-21T13:27:34;3.60;;;2.17;;
10283;SDS011;5187;52.378;9.018;2022-08-21T13:30:04;3.95;;;2.63;;
10283;SDS011;5187;52.378;9.018;2022-08-21T13:32:34;4.75;;;2.40;;
10283;SDS011;5187;52.378;9.018;2022-08-21T13:35:07;3.45;;;2.35;;
10283;SDS011;5187;52.378;9.018;2022-08-21T13:37:37;4.30;;;2.50;;
10283;SDS011;5187;52.378;9.018;2022-08-21T13:40:08;4.22;;;2.40;;
10283;SDS011;5187;52.378;9.018;2022-08-21T13:42:41;4.03;;;2.33;;
10283;SDS011;5187;52.378;9.018;2022-08-21T13:45:12;6.38;;;2.50;;
10283;SDS011;5187;52.378;9.018;2022-08-21T13:47:41;4.82;;;2.53;;
10283;SDS011;5187;52.378;9.018;2022-08-21T13:50:11;5.03;;;2.55;;
10283;SDS011;5187;52.378;9.018;2022-08-21T13:52:48;3.70;;;2.22;;
10283;SDS011;5187;52.378;9.018;2022-08-21T13:55:17;4.15;;;2.20;;
10283;SDS011;5187;52.378;9.018;2022-08-21T13:57:47;6.43;;;2.70;;
10283;SDS011;5187;52.378;9.018;2022-08-21T14:00:27;3.65;;;2.45;;
10283;SDS011;5187;52.378;9.018;2022-08-21T14:03:00;4.35;;;2.60;;
10283;SDS011;5187;52.378;9.018;2022-08-21T14:05:32;4.88;;;2.42;;
10283;SDS011;5187;52.378;9.018;2022-08-21T14:08:02;4.20;;;2.45;;
10283;SDS011;5187;52.378;9.018;2022-08-21T14:10:31;3.88;;;2.72;;
10283;SDS011;5187;52.378;9.018;2022-08-21T14:13:05;3.35;;;2.67;;
10283;SDS011;5187;52.378;9.018;2022-08-21T14:15:34;8.98;;;3.10;;
10283;SDS011;5187;52.378;9.018;2022-08-21T14:18:09;6.57;;;2.58;;
10283;SDS011;5187;52.378;9.018;2022-08-21T14:20:41;5.80;;;2.95;;
10283;SDS011;5187;52.378;9.018;2022-08-21T14:23:10;4.95;;;2.80;;
10283;SDS011;5187;52.378;9.018;2022-08-21T14:25:40;4.15;;;2.50;;
10283;SDS011;5187;52.378;9.018;2022-08-21T14:28:14;3.22;;;2.30;;
10283;SDS011;5187;52.378;9.018;2022-08-21T14:30:45;4.82;;;3.03;;
10283;SDS011;5187;52.378;9.018;2022-08-21T14:33:21;4.70;;;2.50;;
10283;SDS011;5187;52.378;9.018;2022-08-21T14:35:51;4.63;;;2.80;;
10283;SDS011;5187;52.378;9.018;2022-08-21T14:38:20;4.53;;;3.03;;
10283;SDS011;5187;52.378;9.018;2022-08-21T14:40:49;4.97;;;2.40;;
10283;SDS011;5187;52.378;9.018;2022-08-21T14:43:20;4.95;;;2.60;;
10283;SDS011;5187;52.378;9.018;2022-08-21T14:45:48;5.22;;;2.60;;
10283;SDS011;5187;52.378;9.018;2022-08-21T14:48:17;4.85;;;2.60;;
10283;SDS011;5187;52.378;9.018;2022-08-21T14:50:45;4.05;;;2.72;;
10283;SDS011;5187;52.378;9.018;2022-08-21T14:53:14;6.18;;;3.05;;
10283;SDS011;5187;52.378;9.018;2022-08-21T14:55:44;6.90;;;2.90;;
10283;SDS011;5187;52.378;9.018;2022-08-21T14:58:34;4.95;;;2.58;;
10283;SDS011;5187;52.378;9.018;2022-08-21T15:01:03;4.88;;;2.90;;
10283;SDS011;5187;52.378;9.018;2022-08-21T15:03:33;3.92;;;2.33;;
10283;SDS011;5187;52.378;9.018;2022-08-21T15:06:02;7.40;;;2.70;;
10283;SDS011;5187;52.378;9.018;2022-08-21T15:08:31;5.07;;;2.60;;
10283;SDS011;5187;52.378;9.018;2022-08-21T15:11:00;5.10;;;2.70;;
10283;SDS011;5187;52.378;9.018;2022-08-21T15:14:06;3.17;;;2.40;;
10283;SDS011;5187;52.378;9.018;2022-08-21T15:16:36;4.43;;;2.50;;
10283;SDS011;5187;52.378;9.018;2022-08-21T15:19:05;5.88;;;2.40;;
10283;SDS011;5187;52.378;9.018;2022-08-21T15:21:34;4.93;;;2.60;;